Time;durP1;ratioP1;P1;durP2;ratioP2;P2;SDS_P1;SDS_P2;PMS_P1;PMS_P2;Temp;Humidity;BMP_temperature;BMP_pressure;BME280_temperature;BME280_humidity;BME280_pressure;Samples;Min_cycle;Max_cycle;Signal;HPM_P1;HPM_P2
2024/03/23 00:00:51;;;;;;;17.40;10.80;;;;;;;6.86;67.73;101145.98;107515;1251;99707;-65
2024/03/23 00:03:31;;;;;;;21.30;11.30;;;;;;;6.79;67.52;101143.09;107526;1250;113535;-64
2024/03/23 00:06:00;;;;;;;22.00;11.60;;;;;;;6.76;67.59;101140.41;107583;1251;108671;-67
2024/03/23 00:08:29;;;;;;;19.80;11.90;;;;;;;6.74;67.67;101141.59;107476;1254;107948;-66
2024/03/23 00:10:57;;;;;;;18.10;11.30;;;;;;;6.75;68.01;101136.39;107545;1251;99175;-69
2024/03/23 00:13:25;;;;;;;27.90;11.90;;;;;;;6.75;67.93;101131.55;107557;1251;99093;-66
2024/03/23 00:15:53;;;;;;;23.20;11.40;;;;;;;6.72;67.72;101131.72;107566;1251;113578;-67
2024/03/23 00:18:23;;;;;;;19.00;11.30;;;;;;;6.68;67.90;101129.89;107527;1251;107458;-66
2024/03/23 00:20:54;;;;;;;22.90;11.90;;;;;;;6.63;68.11;101129.02;107510;1251;108236;-66
2024/03/23 00:23:22;;;;;;;19.50;11.40;;;;;;;6.56;68.03;101134.60;107645;1251;99832;-66
2024/03/23 00:25:51;;;;;;;19.30;10.70;;;;;;;6.50;68.18;101134.27;107580;1250;99243;-64
2024/03/23 00:28:19;;;;;;;15.10;10.90;;;;;;;6.46;68.13;101130.61;107539;1254;112703;-66
2024/03/23 00:30:47;;;;;;;21.10;11.50;;;;;;;6.42;68.22;101123.05;107598;1251;108338;-67
2024/03/23 00:33:15;;;;;;;20.10;12.30;;;;;;;6.39;68.45;101123.63;107591;1255;108134;-66
2024/03/23 00:35:44;;;;;;;17.60;11.00;;;;;;;6.31;68.20;101123.04;107565;1253;99198;-65
2024/03/23 00:38:12;;;;;;;23.10;11.10;;;;;;;6.23;68.34;101127.81;107558;1251;99822;-65
2024/03/23 00:40:40;;;;;;;18.70;11.70;;;;;;;6.18;68.16;101121.38;107626;1254;112615;-65
2024/03/23 00:43:08;;;;;;;19.70;11.20;;;;;;;6.11;68.12;101122.30;107564;1254;108355;-65
2024/03/23 00:45:37;;;;;;;20.30;11.80;;;;;;;6.06;68.26;101122.86;107590;1254;108874;-65
2024/03/23 00:48:06;;;;;;;21.50;12.40;;;;;;;5.99;68.32;101125.05;107618;1254;99258;-65
2024/03/23 00:50:35;;;;;;;24.80;11.90;;;;;;;5.92;68.42;101126.19;107641;1252;99092;-65
2024/03/23 00:53:03;;;;;;;26.50;11.80;;;;;;;5.85;68.41;101124.31;107643;1253;113089;-65
2024/03/23 00:55:31;;;;;;;19.70;11.50;;;;;;;5.78;68.44;101123.65;107647;1253;107756;-68
2024/03/23 00:57:59;;;;;;;21.60;10.50;;;;;;;5.71;68.52;101123.95;107656;1254;108539;-64
2024/03/23 01:00:27;;;;;;;21.90;11.10;;;;;;;5.63;68.36;101116.60;107587;1252;98769;-63
2024/03/23 01:02:55;;;;;;;17.80;10.80;;;;;;;5.57;68.58;101114.70;107620;1252;99893;-64
2024/03/23 01:05:24;;;;;;;22.70;11.40;;;;;;;5.47;68.47;101112.94;107583;1254;113443;-65
2024/03/23 01:07:52;;;;;;;21.40;11.30;;;;;;;5.40;68.61;101105.36;107424;1254;107691;-65
2024/03/23 01:10:20;;;;;;;26.70;12.40;;;;;;;5.38;68.78;101108.73;107545;1251;108622;-64
2024/03/23 01:12:48;;;;;;;22.50;12.70;;;;;;;5.34;68.93;101106.48;107575;1251;99862;-65
2024/03/23 01:15:16;;;;;;;20.60;12.00;;;;;;;5.28;69.03;101104.66;107599;1251;99561;-64
2024/03/23 01:17:46;;;;;;;25.20;12.60;;;;;;;5.25;69.26;101099.38;107583;1251;113179;-66
2024/03/23 01:20:14;;;;;;;17.20;10.90;;;;;;;5.22;69.30;101094.96;107554;1251;109085;-66
2024/03/23 01:22:43;;;;;;;18.30;10.60;;;;;;;5.15;69.13;101097.81;107565;1254;108757;-67
2024/03/23 01:25:11;;;;;;;22.40;11.00;;;;;;;5.09;69.08;101094.80;107565;1251;99166;-66
2024/03/23 01:27:39;;;;;;;19.10;11.30;;;;;;;5.04;69.15;101094.93;107576;1254;99277;-64
2024/03/23 01:30:08;;;;;;;23.30;11.40;;;;;;;4.97;69.25;101095.36;107562;1251;113204;-66
2024/03/23 01:32:36;;;;;;;26.00;11.00;;;;;;;4.87;69.49;101094.70;107622;1254;108873;-66
2024/03/23 01:35:05;;;;;;;23.90;11.30;;;;;;;4.78;69.42;101092.39;107603;1254;108628;-66
2024/03/23 01:37:33;;;;;;;21.60;11.80;;;;;;;4.72;69.32;101093.45;107574;1251;99846;-65
2024/03/23 01:40:01;;;;;;;19.20;11.50;;;;;;;4.64;69.63;101094.05;107588;1254;99707;-65
2024/03/23 01:42:29;;;;;;;22.40;11.10;;;;;;;4.58;69.73;101094.09;107637;1251;112346;-64
2024/03/23 01:44:57;;;;;;;18.80;11.70;;;;;;;4.50;69.52;101090.61;107585;1251;107742;-65
2024/03/23 01:47:25;;;;;;;17.60;10.70;;;;;;;4.41;69.69;101090.77;107607;1251;107310;-66
2024/03/23 01:49:53;;;;;;;19.80;11.30;;;;;;;4.33;69.59;101088.23;107561;1253;99255;-66
2024/03/23 01:52:22;;;;;;;17.40;10.30;;;;;;;4.28;69.72;101088.14;107596;1252;99691;-65
2024/03/23 01:54:51;;;;;;;18.80;12.00;;;;;;;4.24;70.14;101089.27;107640;1253;113077;-65
2024/03/23 01:57:23;;;;;;;18.90;11.90;;;;;;;4.19;69.87;101087.39;107528;1252;107271;-64
2024/03/23 01:59:51;;;;;;;22.10;11.30;;;;;;;4.14;69.66;101085.59;107567;1253;108840;-65
2024/03/23 02:02:24;;;;;;;22.70;11.80;;;;;;;4.09;69.78;101085.64;107525;1254;99170;-66
2024/03/23 02:04:52;;;;;;;17.10;11.80;;;;;;;4.01;69.70;101083.78;107621;1253;99755;-65
2024/03/23 02:07:20;;;;;;;18.10;11.40;;;;;;;3.95;69.81;101085.58;107639;1254;112651;-64
2024/03/23 02:09:48;;;;;;;22.30;11.30;;;;;;;3.88;70.02;101081.70;107582;1256;107830;-64
2024/03/23 02:12:17;;;;;;;18.40;11.10;;;;;;;3.83;69.90;101078.42;107595;1254;107490;-65
2024/03/23 02:14:45;;;;;;;19.60;10.30;;;;;;;3.79;69.97;101075.80;107566;1252;99265;-65
2024/03/23 02:17:13;;;;;;;22.60;12.40;;;;;;;3.74;69.96;101071.61;107522;1253;100335;-65
2024/03/23 02:19:41;;;;;;;23.30;12.10;;;;;;;3.72;69.89;101073.16;107578;1254;114482;-64
2024/03/23 02:22:11;;;;;;;19.50;11.40;;;;;;;3.68;69.82;101077.27;107565;1254;108447;-63
2024/03/23 02:24:39;;;;;;;18.90;11.30;;;;;;;3.64;69.86;101073.98;107535;1254;108386;-65
2024/03/23 02:27:07;;;;;;;22.30;11.70;;;;;;;3.59;70.00;101070.34;107536;1253;99066;-65
2024/03/23 02:29:36;;;;;;;20.10;11.10;;;;;;;3.54;70.37;101067.75;107569;1254;99198;-64
2024/03/23 02:32:04;;;;;;;18.60;11.20;;;;;;;3.48;70.62;101070.18;107594;1253;112985;-65
2024/03/23 02:34:32;;;;;;;20.00;12.20;;;;;;;3.42;70.42;101069.78;107592;1254;107333;-65
2024/03/23 02:37:00;;;;;;;17.80;11.10;;;;;;;3.36;70.36;101066.60;107533;1254;107869;-65
2024/03/23 02:39:28;;;;;;;19.50;12.20;;;;;;;3.32;70.80;101067.88;107409;1254;99185;-64
2024/03/23 02:41:56;;;;;;;18.20;10.90;;;;;;;3.29;70.87;101067.67;107540;1254;99124;-64
2024/03/23 02:44:24;;;;;;;19.10;11.50;;;;;;;3.25;71.02;101065.39;107632;1256;112868;-64
2024/03/23 02:46:52;;;;;;;21.80;11.20;;;;;;;3.23;71.24;101066.05;107600;1255;107821;-64
2024/03/23 02:49:21;;;;;;;18.50;11.20;;;;;;;3.19;71.20;101061.79;107561;1252;108340;-65
2024/03/23 02:51:49;;;;;;;18.10;10.90;;;;;;;3.17;71.40;101064.40;107595;1252;99674;-64
2024/03/23 02:54:17;;;;;;;19.70;11.30;;;;;;;3.15;71.22;101061.86;107551;1254;99207;-65
2024/03/23 02:56:45;;;;;;;17.80;11.40;;;;;;;3.11;71.30;101058.67;107589;1255;112926;-64
2024/03/23 02:59:13;;;;;;;19.80;10.40;;;;;;;3.08;71.24;101059.58;107583;1255;108054;-65
2024/03/23 03:01:41;;;;;;;22.30;11.30;;;;;;;3.04;71.38;101056.73;107603;1254;108147;-64
2024/03/23 03:04:09;;;;;;;18.50;10.80;;;;;;;3.01;71.39;101058.51;107567;1254;99306;-63
2024/03/23 03:06:37;;;;;;;18.80;10.90;;;;;;;2.98;71.44;101052.25;107565;1251;99688;-64
2024/03/23 03:09:05;;;;;;;19.10;11.80;;;;;;;2.96;71.47;101048.45;107505;1251;113068;-65
2024/03/23 03:11:34;;;;;;;21.50;12.00;;;;;;;2.92;71.41;101047.83;107542;1250;108387;-64
2024/03/23 03:14:02;;;;;;;19.90;11.30;;;;;;;2.88;71.40;101052.27;107514;1254;108135;-64
2024/03/23 03:16:30;;;;;;;21.50;12.20;;;;;;;2.87;71.61;101046.66;107567;1256;99344;-64
2024/03/23 03:18:58;;;;;;;23.00;12.70;;;;;;;2.83;71.49;101041.70;107543;1251;99060;-64
2024/03/23 03:21:27;;;;;;;19.10;12.00;;;;;;;2.80;71.66;101040.06;107497;1254;112211;-66
2024/03/23 03:23:56;;;;;;;18.30;10.40;;;;;;;2.77;71.75;101034.73;107608;1254;107695;-66
2024/03/23 03:26:26;;;;;;;26.50;19.40;;;;;;;2.75;71.89;101030.46;107611;1253;107413;-64
2024/03/23 03:28:54;;;;;;;23.90;14.80;;;;;;;2.71;71.84;101030.64;107597;1252;99176;-66
2024/03/23 03:31:24;;;;;;;26.70;12.20;;;;;;;2.68;71.88;101024.92;107470;1254;99714;-65
2024/03/23 03:33:53;;;;;;;19.70;12.30;;;;;;;2.68;72.08;101022.66;107606;1253;112112;-63
2024/03/23 03:36:21;;;;;;;23.20;12.10;;;;;;;2.68;72.11;101026.20;107652;1251;107356;-63
2024/03/23 03:38:49;;;;;;;20.00;12.40;;;;;;;2.67;71.90;101017.74;107572;1254;108536;-64
2024/03/23 03:41:19;;;;;;;24.00;12.00;;;;;;;2.66;71.98;101022.39;107545;1253;99195;-65
2024/03/23 03:43:47;;;;;;;31.40;12.50;;;;;;;2.65;72.14;101018.73;107572;1251;99157;-65
2024/03/23 03:46:15;;;;;;;20.30;11.10;;;;;;;2.64;71.99;101013.77;107529;1251;113084;-64
2024/03/23 03:48:44;;;;;;;21.20;11.50;;;;;;;2.63;72.12;101013.52;107547;1251;107681;-65
2024/03/23 03:51:12;;;;;;;29.90;12.40;;;;;;;2.61;72.33;101012.58;107570;1251;109407;-65
2024/03/23 03:53:41;;;;;;;23.30;11.50;;;;;;;2.55;72.40;101009.52;107569;1250;99169;-65
2024/03/23 03:56:09;;;;;;;24.00;11.80;;;;;;;2.47;72.05;101011.14;107524;1253;99079;-64
2024/03/23 03:58:37;;;;;;;23.70;11.70;;;;;;;2.43;72.48;101008.88;107460;1253;114009;-66
2024/03/23 04:01:05;;;;;;;24.40;13.10;;;;;;;2.40;72.57;101008.66;107591;1253;107902;-64
2024/03/23 04:03:34;;;;;;;21.10;11.50;;;;;;;2.39;72.79;101004.29;107526;1251;108419;-64
2024/03/23 04:06:03;;;;;;;24.30;13.80;;;;;;;2.37;72.58;100999.07;107541;1251;99113;-65
2024/03/23 04:08:31;;;;;;;26.10;14.20;;;;;;;2.37;72.93;100999.08;107581;1251;99824;-65
2024/03/23 04:10:59;;;;;;;25.60;13.30;;;;;;;2.37;72.71;101001.40;107599;1250;112712;-65
2024/03/23 04:13:27;;;;;;;24.30;13.00;;;;;;;2.35;72.93;100997.56;107538;1251;108306;-63
2024/03/23 04:15:56;;;;;;;21.20;12.20;;;;;;;2.34;72.80;100997.09;107569;1251;108245;-64
2024/03/23 04:18:24;;;;;;;24.60;11.80;;;;;;;2.33;72.77;100994.33;107619;1250;99224;-65
2024/03/23 04:20:52;;;;;;;20.70;13.10;;;;;;;2.30;73.03;100989.34;107601;1250;99223;-65
2024/03/23 04:23:21;;;;;;;19.40;12.20;;;;;;;2.28;73.02;100983.61;107576;1251;111982;-64
2024/03/23 04:25:49;;;;;;;23.70;12.80;;;;;;;2.28;73.00;100981.29;107584;1251;108514;-64
2024/03/23 04:28:18;;;;;;;24.40;12.90;;;;;;;2.29;73.26;100978.41;107578;1254;108593;-64
2024/03/23 04:30:46;;;;;;;20.30;12.40;;;;;;;2.31;73.20;100983.61;107592;1251;99256;-64
2024/03/23 04:33:14;;;;;;;21.00;12.40;;;;;;;2.33;73.20;100982.30;107599;1251;99060;-63
2024/03/23 04:35:42;;;;;;;21.10;12.00;;;;;;;2.35;73.40;100981.67;107636;1251;112365;-65
2024/03/23 04:38:10;;;;;;;19.70;12.00;;;;;;;2.36;73.41;100981.79;107642;1251;107282;-64
2024/03/23 04:40:38;;;;;;;22.60;12.60;;;;;;;2.36;73.23;100983.37;107615;1251;108124;-64
2024/03/23 04:43:06;;;;;;;22.30;13.50;;;;;;;2.38;73.37;100985.78;107550;1254;99259;-63
2024/03/23 04:45:34;;;;;;;19.30;11.30;;;;;;;2.39;73.30;100984.46;107593;1256;98243;-64
2024/03/23 04:48:02;;;;;;;31.60;12.30;;;;;;;2.41;73.28;100988.25;107566;1252;112545;-64
2024/03/23 04:50:30;;;;;;;23.50;12.40;;;;;;;2.43;73.36;100984.80;107647;1253;107245;-65
2024/03/23 04:52:58;;;;;;;25.20;12.90;;;;;;;2.44;73.31;100984.53;107530;1254;108196;-65
2024/03/23 04:55:27;;;;;;;24.10;13.20;;;;;;;2.46;73.48;100980.19;107612;1252;99296;-64
2024/03/23 04:57:55;;;;;;;24.00;13.30;;;;;;;2.49;73.55;100981.14;107584;1251;99063;-65
2024/03/23 05:00:24;;;;;;;20.60;13.50;;;;;;;2.53;73.81;100979.86;107592;1254;112992;-65
2024/03/23 05:02:53;;;;;;;21.90;12.80;;;;;;;2.57;73.65;100976.45;107604;1253;107830;-64
2024/03/23 05:05:21;;;;;;;20.90;13.30;;;;;;;2.59;73.90;100976.69;107623;1251;108086;-66
2024/03/23 05:07:49;;;;;;;23.90;14.20;;;;;;;2.63;74.05;100975.77;107604;1250;99093;-66
2024/03/23 05:10:17;;;;;;;23.80;13.80;;;;;;;2.68;73.93;100973.59;107595;1251;99707;-65
2024/03/23 05:12:45;;;;;;;21.80;14.70;;;;;;;2.72;74.23;100976.37;107602;1251;113084;-65
2024/03/23 05:15:13;;;;;;;25.30;15.70;;;;;;;2.77;74.01;100975.06;107616;1251;107656;-65
2024/03/23 05:17:41;;;;;;;27.40;15.00;;;;;;;2.82;74.29;100973.04;107683;1250;107908;-66
2024/03/23 05:20:12;;;;;;;23.10;13.60;;;;;;;2.88;74.55;100971.68;107540;1252;99170;-64
2024/03/23 05:22:40;;;;;;;26.10;14.10;;;;;;;2.93;74.34;100974.92;107622;1254;99169;-64
2024/03/23 05:25:09;;;;;;;26.00;13.90;;;;;;;2.98;74.61;100971.10;107620;1251;113022;-64
2024/03/23 05:27:37;;;;;;;25.10;15.10;;;;;;;3.05;74.88;100975.02;107579;1250;107286;-65
2024/03/23 05:30:07;;;;;;;24.50;14.80;;;;;;;3.13;74.95;100976.69;107546;1254;108333;-65
2024/03/23 05:32:35;;;;;;;34.00;16.10;;;;;;;3.21;75.01;100975.37;107595;1250;99173;-65
2024/03/23 05:35:03;;;;;;;25.80;16.10;;;;;;;3.29;75.20;100975.63;107584;1251;99688;-66
2024/03/23 05:37:33;;;;;;;27.60;16.20;;;;;;;3.36;75.39;100976.15;107599;1251;113273;-65
2024/03/23 05:40:03;;;;;;;30.20;16.70;;;;;;;3.43;75.39;100975.42;107597;1251;107474;-65
2024/03/23 05:42:31;;;;;;;37.00;17.20;;;;;;;3.51;75.43;100973.59;107581;1251;107726;-64
2024/03/23 05:45:00;;;;;;;31.50;17.10;;;;;;;3.59;75.56;100976.33;107560;1251;99239;-65
2024/03/23 05:47:28;;;;;;;30.00;19.10;;;;;;;3.66;75.70;100974.50;107632;1251;99945;-63
2024/03/23 05:49:57;;;;;;;27.90;17.10;;;;;;;3.72;76.03;100973.62;107534;1250;112166;-65
2024/03/23 05:52:25;;;;;;;30.10;16.90;;;;;;;3.79;75.99;100969.32;107593;1251;107903;-63
2024/03/23 05:54:53;;;;;;;33.00;17.80;;;;;;;3.87;76.23;100962.17;107503;1251;106782;-64
2024/03/23 05:57:21;;;;;;;30.80;17.90;;;;;;;3.94;76.54;100962.84;107503;1253;99167;-65
2024/03/23 05:59:50;;;;;;;30.30;17.70;;;;;;;4.00;76.59;100965.50;107635;1251;99185;-65
2024/03/23 06:02:18;;;;;;;29.40;16.90;;;;;;;4.09;77.02;100967.83;107553;1251;113209;-66
2024/03/23 06:04:46;;;;;;;32.10;18.70;;;;;;;4.17;76.95;100968.77;107565;1254;108289;-65
2024/03/23 06:07:14;;;;;;;33.50;18.70;;;;;;;4.24;76.73;100964.10;107563;1251;108177;-65
2024/03/23 06:09:43;;;;;;;31.50;16.70;;;;;;;4.32;77.00;100966.33;107524;1251;99173;-65
2024/03/23 06:12:11;;;;;;;29.40;16.70;;;;;;;4.39;77.14;100966.45;107527;1254;99032;-64
2024/03/23 06:14:39;;;;;;;32.70;16.80;;;;;;;4.46;76.85;100961.40;107617;1255;113062;-65
2024/03/23 06:17:08;;;;;;;25.90;16.10;;;;;;;4.53;76.93;100960.98;107558;1254;108516;-63
2024/03/23 06:19:36;;;;;;;28.20;16.20;;;;;;;4.61;77.02;100953.38;107590;1255;107099;-63
2024/03/23 06:22:06;;;;;;;29.90;15.70;;;;;;;4.69;77.03;100948.97;107594;1254;99185;-65
2024/03/23 06:24:35;;;;;;;30.70;15.90;;;;;;;4.79;76.98;100952.30;107597;1254;99175;-65
2024/03/23 06:27:04;;;;;;;26.20;15.60;;;;;;;4.89;77.12;100955.08;107598;1253;112862;-64
2024/03/23 06:29:32;;;;;;;26.30;14.10;;;;;;;5.01;77.27;100954.86;107605;1254;108363;-64
2024/03/23 06:32:00;;;;;;;35.30;15.20;;;;;;;5.12;76.99;100952.38;107550;1254;107831;-64
2024/03/23 06:34:28;;;;;;;33.70;16.30;;;;;;;5.21;76.89;100949.89;107590;1253;99192;-64
2024/03/23 06:36:57;;;;;;;33.60;16.10;;;;;;;5.29;76.76;100945.63;107548;1252;99717;-65
2024/03/23 06:39:25;;;;;;;26.60;15.30;;;;;;;5.37;76.59;100939.42;107557;1254;112646;-65
2024/03/23 06:41:54;;;;;;;30.10;15.30;;;;;;;5.47;76.61;100938.63;107606;1251;108350;-65
2024/03/23 06:44:22;;;;;;;26.30;15.40;;;;;;;5.56;76.57;100940.52;107566;1251;108685;-65
2024/03/23 06:46:51;;;;;;;27.90;14.40;;;;;;;5.67;76.64;100942.16;107568;1253;99178;-65
2024/03/23 06:49:19;;;;;;;22.90;14.40;;;;;;;5.79;76.60;100941.91;107625;1253;99260;-65
2024/03/23 06:51:49;;;;;;;38.60;14.90;;;;;;;5.91;76.49;100942.92;107546;1251;113190;-65
2024/03/23 06:54:20;;;;;;;26.70;14.40;;;;;;;6.05;76.55;100942.02;107635;1254;108578;-65
2024/03/23 06:56:48;;;;;;;31.60;15.70;;;;;;;6.18;76.42;100943.62;107522;1257;108441;-65
2024/03/23 06:59:16;;;;;;;33.80;15.70;;;;;;;6.31;76.46;100942.25;107609;1251;99253;-63
2024/03/23 07:01:44;;;;;;;27.40;14.90;;;;;;;6.45;76.14;100942.21;107590;1254;99770;-63
2024/03/23 07:04:12;;;;;;;22.50;14.00;;;;;;;6.57;76.03;100939.38;107545;1252;113185;-64
2024/03/23 07:06:45;;;;;;;25.20;13.70;;;;;;;6.68;76.02;100932.58;107602;1251;108144;-63
2024/03/23 07:09:13;;;;;;;24.60;13.50;;;;;;;6.81;75.78;100928.13;107605;1251;108642;-63
2024/03/23 07:11:41;;;;;;;23.30;13.30;;;;;;;6.93;75.74;100924.80;107535;1250;99188;-63
2024/03/23 07:14:09;;;;;;;27.20;14.40;;;;;;;7.05;75.44;100918.93;107585;1251;99243;-63
2024/03/23 07:16:37;;;;;;;24.90;14.10;;;;;;;7.19;75.21;100912.06;107581;1251;114235;-64
2024/03/23 07:19:06;;;;;;;26.00;13.60;;;;;;;7.32;75.20;100910.61;107573;1251;107903;-63
2024/03/23 07:21:34;;;;;;;24.50;13.90;;;;;;;7.46;74.72;100907.46;107549;1254;107497;-63
2024/03/23 07:24:02;;;;;;;23.90;13.30;;;;;;;7.58;74.45;100904.98;107613;1253;99195;-65
2024/03/23 07:26:30;;;;;;;29.60;13.10;;;;;;;7.68;73.93;100905.27;107616;1256;99719;-64
2024/03/23 07:28:58;;;;;;;25.90;13.70;;;;;;;7.77;73.16;100904.96;107587;1255;111693;-64
2024/03/23 07:31:26;;;;;;;24.10;14.40;;;;;;;7.86;73.00;100901.99;107575;1256;107443;-64
2024/03/23 07:33:55;;;;;;;25.20;14.00;;;;;;;7.98;72.99;100899.69;107591;1254;108179;-65
2024/03/23 07:36:23;;;;;;;28.60;13.70;;;;;;;8.13;73.05;100900.51;107548;1253;99188;-66
2024/03/23 07:38:51;;;;;;;21.40;13.10;;;;;;;8.35;73.12;100895.59;107504;1254;99301;-65
2024/03/23 07:41:35;;;;;;;25.10;13.70;;;;;;;8.54;72.75;100900.05;107584;1254;113216;-64
2024/03/23 07:44:04;;;;;;;22.50;13.10;;;;;;;8.68;72.48;100898.41;107606;1254;107568;-64
2024/03/23 07:46:32;;;;;;;25.40;13.00;;;;;;;8.83;72.33;100893.48;107583;1253;108639;-65
2024/03/23 07:49:00;;;;;;;28.10;13.60;;;;;;;8.97;71.94;100888.66;107569;1254;99170;-64
2024/03/23 07:51:28;;;;;;;24.30;13.40;;;;;;;9.12;71.93;100887.29;107643;1253;99227;-65
2024/03/23 07:53:56;;;;;;;20.90;13.00;;;;;;;9.26;71.33;100879.56;107539;1254;112704;-66
2024/03/23 07:56:25;;;;;;;19.40;11.30;;;;;;;9.41;71.12;100880.84;107649;1250;108379;-66
2024/03/23 07:58:53;;;;;;;32.80;14.00;;;;;;;9.61;70.69;100876.36;106929;1252;864337;-64
2024/03/23 08:01:21;;;;;;;32.50;13.20;;;;;;;9.79;70.17;100877.34;107571;1253;99070;-64
2024/03/23 08:03:50;;;;;;;23.80;13.40;;;;;;;9.93;70.10;100873.66;107582;1252;99195;-66
2024/03/23 08:06:20;;;;;;;26.80;13.10;;;;;;;10.07;69.29;100874.50;107623;1251;113340;-64
2024/03/23 08:08:56;;;;;;;28.50;12.40;;;;;;;10.20;68.69;100873.92;107646;1251;107242;-64
2024/03/23 08:11:31;;;;;;;28.50;14.20;;;;;;;10.35;67.80;100871.04;107608;1254;108107;-64
2024/03/23 08:14:01;;;;;;;20.90;13.10;;;;;;;10.50;67.83;100865.84;107593;1252;99204;-64
2024/03/23 08:16:29;;;;;;;29.20;14.10;;;;;;;10.64;67.74;100858.37;107594;1254;99694;-64
2024/03/23 08:18:57;;;;;;;35.50;15.90;;;;;;;10.78;67.53;100856.37;107588;1254;113520;-68
2024/03/23 08:21:26;;;;;;;23.20;12.70;;;;;;;10.95;67.48;100850.81;107570;1256;108348;-66
2024/03/23 08:23:54;;;;;;;24.00;12.20;;;;;;;11.13;67.44;100849.00;107600;1254;107194;-65
2024/03/23 08:26:22;;;;;;;23.90;12.90;;;;;;;11.29;67.28;100847.19;107583;1254;99169;-64
2024/03/23 08:28:50;;;;;;;28.20;12.60;;;;;;;11.44;66.62;100845.15;107601;1254;99657;-65
2024/03/23 08:31:19;;;;;;;39.50;14.40;;;;;;;11.58;66.36;100844.78;107582;1255;112619;-65
2024/03/23 08:33:47;;;;;;;21.50;13.70;;;;;;;11.73;65.96;100839.80;107582;1254;110335;-64
2024/03/23 08:36:16;;;;;;;25.50;12.80;;;;;;;11.89;65.67;100839.10;107557;1255;108915;-64
2024/03/23 08:38:44;;;;;;;24.90;13.80;;;;;;;12.03;64.53;100834.41;107553;1254;99214;-64
2024/03/23 08:41:13;;;;;;;23.70;12.90;;;;;;;12.17;63.91;100834.30;107619;1254;99071;-64
2024/03/23 08:43:45;;;;;;;32.50;13.80;;;;;;;12.37;64.04;100829.73;107671;1251;112093;-64
2024/03/23 08:46:15;;;;;;;27.20;13.00;;;;;;;12.58;63.22;100828.17;107604;1254;107455;-64
2024/03/23 08:48:45;;;;;;;29.20;13.30;;;;;;;12.75;63.14;100822.86;107580;1252;107122;-64
2024/03/23 08:51:14;;;;;;;24.80;13.00;;;;;;;12.94;62.63;100821.40;107611;1252;99288;-64
2024/03/23 08:53:44;;;;;;;29.00;17.70;;;;;;;13.12;62.01;100815.22;107679;1251;99056;-64
2024/03/23 08:56:12;;;;;;;28.70;17.40;;;;;;;13.32;61.38;100810.72;107639;1250;113125;-64
2024/03/23 08:58:40;;;;;;;37.20;13.70;;;;;;;13.53;60.67;100800.73;107641;1254;107969;-63
2024/03/23 09:01:15;;;;;;;21.30;12.10;;;;;;;13.77;60.55;100799.05;107568;1256;108508;-64
2024/03/23 09:03:44;;;;;;;25.40;12.90;;;;;;;14.04;59.23;100798.09;107596;1253;99184;-64
2024/03/23 09:06:14;;;;;;;38.10;13.50;;;;;;;14.25;57.73;100794.32;107622;1251;99179;-64
2024/03/23 09:08:42;;;;;;;20.20;11.70;;;;;;;14.47;56.48;100794.41;107667;1251;112394;-64
2024/03/23 09:11:12;;;;;;;19.50;12.70;;;;;;;14.69;56.77;100785.73;107638;1251;109513;-64
2024/03/23 09:13:44;;;;;;;32.00;12.50;;;;;;;14.98;55.96;100783.23;107574;1250;106466;-64
2024/03/23 09:16:12;;;;;;;20.40;12.40;;;;;;;15.29;55.52;100779.52;107524;1250;99762;-64
2024/03/23 09:18:40;;;;;;;29.80;11.10;;;;;;;15.53;52.92;100776.62;107466;1253;99735;-64
2024/03/23 09:21:15;;;;;;;24.70;11.30;;;;;;;15.75;52.95;100772.59;107585;1253;112911;-64
2024/03/23 09:23:44;;;;;;;21.30;11.70;;;;;;;16.03;52.14;100766.95;107597;1255;107893;-64
2024/03/23 09:26:13;;;;;;;17.60;11.40;;;;;;;16.35;51.91;100762.87;107592;1254;108860;-64
2024/03/23 09:28:41;;;;;;;24.50;11.20;;;;;;;16.77;52.19;100754.65;107537;1254;99175;-64
2024/03/23 09:31:14;;;;;;;20.80;11.10;;;;;;;17.37;50.60;100748.85;107641;1253;99240;-64
2024/03/23 09:33:42;;;;;;;24.80;10.60;;;;;;;18.14;49.30;100742.58;107631;1255;112499;-64
2024/03/23 09:36:11;;;;;;;22.60;11.40;;;;;;;18.87;45.54;100743.29;107592;1254;108519;-64
2024/03/23 09:38:41;;;;;;;21.40;11.70;;;;;;;19.41;45.95;100733.94;107571;1253;107431;-64
2024/03/23 09:41:09;;;;;;;45.60;12.50;;;;;;;20.04;44.67;100731.45;107572;1253;99272;-65
2024/03/23 09:43:38;;;;;;;37.90;10.90;;;;;;;20.68;42.86;100731.70;107645;1251;99059;-63
2024/03/23 09:46:06;;;;;;;24.00;10.80;;;;;;;21.21;42.01;100725.73;107588;1251;113204;-64
2024/03/23 09:48:36;;;;;;;42.70;10.70;;;;;;;21.86;42.38;100719.70;107627;1251;110886;-64
2024/03/23 09:51:04;;;;;;;14.80;9.30;;;;;;;22.62;41.26;100718.13;107641;1256;108348;-64
2024/03/23 09:53:32;;;;;;;26.20;8.00;;;;;;;23.29;39.81;100714.02;107570;1254;99176;-65
2024/03/23 09:56:01;;;;;;;15.20;6.40;;;;;;;23.78;37.36;100706.83;107632;1253;100336;-65
2024/03/23 09:58:31;;;;;;;14.60;5.80;;;;;;;24.22;36.42;100704.70;107591;1254;112262;-63
2024/03/23 10:01:00;;;;;;;15.60;5.10;;;;;;;24.79;34.57;100708.39;107610;1254;108458;-64
2024/03/23 10:03:28;;;;;;;11.30;4.70;;;;;;;25.29;30.39;100703.95;107585;1254;108183;-64
2024/03/23 10:06:04;;;;;;;9.30;4.20;;;;;;;25.50;29.11;100697.11;107602;1251;99181;-64
2024/03/23 10:08:33;;;;;;;17.60;6.10;;;;;;;25.76;29.63;100699.45;107598;1251;99265;-64
2024/03/23 10:11:15;;;;;;;12.30;4.80;;;;;;;26.34;28.86;100693.64;107638;1251;113771;-65
2024/03/23 10:13:46;;;;;;;13.90;4.90;;;;;;;26.91;29.82;100687.38;107619;1251;108557;-65
2024/03/23 10:16:23;;;;;;;16.90;4.90;;;;;;;27.55;27.41;100687.30;107580;1251;107854;-65
2024/03/23 10:18:51;;;;;;;6.50;4.10;;;;;;;27.94;26.55;100685.05;107583;1251;99086;-65
2024/03/23 10:21:19;;;;;;;11.60;5.00;;;;;;;28.16;25.72;100680.81;107607;1251;99701;-65
2024/03/23 10:23:49;;;;;;;8.70;4.40;;;;;;;28.36;24.26;100677.52;107587;1255;112634;-67
2024/03/23 10:26:25;;;;;;;10.60;4.60;;;;;;;28.34;24.50;100669.35;107606;1251;108891;-65
2024/03/23 10:28:56;;;;;;;16.20;4.00;;;;;;;28.44;23.98;100653.88;107608;1251;107612;-65
2024/03/23 10:31:25;;;;;;;16.40;4.30;;;;;;;28.76;24.27;100645.05;107614;1251;99054;-65
2024/03/23 10:33:54;;;;;;;13.70;4.30;;;;;;;29.07;23.69;100641.30;107610;1251;99169;-65
2024/03/23 10:36:24;;;;;;;13.40;3.90;;;;;;;29.27;23.64;100643.47;107584;1251;112643;-65
2024/03/23 10:38:54;;;;;;;8.10;4.20;;;;;;;29.16;21.82;100641.33;107629;1251;107879;-65
2024/03/23 10:41:26;;;;;;;6.90;4.40;;;;;;;29.05;22.23;100637.13;107601;1250;108510;-65
2024/03/23 10:43:56;;;;;;;10.90;4.10;;;;;;;28.90;22.61;100634.45;107551;1254;99064;-65
2024/03/23 10:46:24;;;;;;;16.90;5.20;;;;;;;29.19;23.76;100625.35;107605;1254;99185;-66
2024/03/23 10:48:52;;;;;;;9.00;4.50;;;;;;;29.43;22.05;100623.98;107576;1254;112478;-66
2024/03/23 10:51:20;;;;;;;7.50;4.10;;;;;;;29.30;22.36;100620.94;107625;1254;109023;-65
2024/03/23 10:53:49;;;;;;;10.70;4.30;;;;;;;29.78;23.52;100616.38;107622;1251;107428;-64
2024/03/23 10:56:19;;;;;;;9.40;4.00;;;;;;;30.22;22.72;100613.84;107579;1251;99182;-64
2024/03/23 10:58:49;;;;;;;12.60;4.40;;;;;;;30.59;22.21;100599.41;107550;1251;99078;-64
2024/03/23 11:01:17;;;;;;;16.20;5.00;;;;;;;30.83;21.39;100597.62;107504;1253;111462;-65
2024/03/23 11:03:47;;;;;;;13.10;4.20;;;;;;;30.57;20.78;100592.45;107592;1254;108369;-66
2024/03/23 11:06:38;;;;;;;12.10;3.80;;;;;;;30.45;21.79;100583.83;107607;1250;108654;-65
2024/03/23 11:09:34;;;;;;;8.40;3.80;;;;;;;30.90;21.93;100580.33;107610;1251;99182;-65
2024/03/23 11:12:26;;;;;;;8.50;4.00;;;;;;;31.48;21.06;100577.69;107587;1255;100380;-67